Time;durP1;ratioP1;P1;durP2;ratioP2;P2;SDS_P1;SDS_P2;PMS_P1;PMS_P2;Temp;Humidity;BMP_temperature;BMP_pressure;BME280_temperature;BME280_humidity;BME280_pressure;Samples;Min_cycle;Max_cycle;Signal;HPM_P1;HPM_P2
2021/09/08 00:00:32;;;;;;;27.70;23.33;;;15.70;99.90;;;;;;5052007;28;20458;-57
2021/09/08 00:03:00;;;;;;;25.63;22.47;;;15.70;99.90;;;;;;5051854;28;20438;-50
2021/09/08 00:05:27;;;;;;;28.23;23.20;;;15.60;99.90;;;;;;5051671;28;20470;-51
2021/09/08 00:07:54;;;;;;;27.57;23.00;;;15.60;99.90;;;;;;5051393;28;20438;-51
2021/09/08 00:10:22;;;;;;;25.40;22.10;;;15.60;99.90;;;;;;5051877;28;20454;-50
2021/09/08 00:12:49;;;;;;;28.00;22.93;;;15.60;99.90;;;;;;5051664;28;20483;-50
2021/09/08 00:15:16;;;;;;;27.67;23.30;;;15.60;99.90;;;;;;5051677;28;20434;-51
2021/09/08 00:17:43;;;;;;;32.57;25.10;;;15.60;99.90;;;;;;5051205;28;20439;-50
2021/09/08 00:20:11;;;;;;;30.90;24.93;;;15.60;99.90;;;;;;5051474;28;20908;-51
2021/09/08 00:22:39;;;;;;;29.13;24.13;;;15.60;99.90;;;;;;5051611;28;20442;-51
2021/09/08 00:25:07;;;;;;;30.10;25.00;;;15.50;99.90;;;;;;5051569;28;20442;-50
2021/09/08 00:27:35;;;;;;;30.00;25.53;;;15.50;99.90;;;;;;5051644;28;20457;-51
2021/09/08 00:30:02;;;;;;;33.73;26.50;;;15.50;99.90;;;;;;5051249;28;20673;-51
2021/09/08 00:32:29;;;;;;;34.10;24.50;;;15.50;99.90;;;;;;5051483;28;20481;-51
2021/09/08 00:34:57;;;;;;;27.10;24.20;;;15.50;99.90;;;;;;5051519;28;20435;-51
2021/09/08 00:37:25;;;;;;;31.90;23.50;;;15.70;99.90;;;;;;5051753;28;20442;-50
2021/09/08 00:39:52;;;;;;;29.17;24.70;;;15.40;99.90;;;;;;5051079;28;20493;-51
2021/09/08 00:42:19;;;;;;;30.30;24.80;;;15.40;99.90;;;;;;5051822;28;20454;-51
2021/09/08 00:44:47;;;;;;;27.10;22.90;;;15.60;99.90;;;;;;5051340;28;20935;-50
2021/09/08 00:47:15;;;;;;;30.90;23.80;;;15.40;99.90;;;;;;5051198;28;20461;-50
2021/09/08 00:49:42;;;;;;;32.57;25.07;;;15.40;99.90;;;;;;5050885;28;20426;-51
2021/09/08 00:52:12;;;;;;;28.47;23.20;;;15.50;99.90;;;;;;5051190;28;20489;-51
2021/09/08 00:54:39;;;;;;;27.63;23.70;;;15.30;99.90;;;;;;5051473;28;20432;-51
2021/09/08 00:57:11;;;;;;;29.30;24.00;;;15.30;99.90;;;;;;5051327;28;20446;-51
2021/09/08 00:59:41;;;;;;;26.50;22.47;;;15.30;99.90;;;;;;5050838;28;20430;-51
2021/09/08 01:02:09;;;;;;;28.70;23.37;;;15.30;99.90;;;;;;5050942;28;20462;-51
2021/09/08 01:04:36;;;;;;;27.47;23.33;;;15.60;99.90;;;;;;5051232;28;20413;-50
2021/09/08 01:07:06;;;;;;;30.43;23.27;;;15.20;99.90;;;;;;5051425;28;20473;-51
2021/09/08 01:09:35;;;;;;;28.27;24.33;;;15.20;99.90;;;;;;5050747;28;20419;-51
2021/09/08 01:12:04;;;;;;;37.43;24.27;;;15.20;99.90;;;;;;5051073;28;20509;-51
2021/09/08 01:14:31;;;;;;;24.60;21.53;;;15.30;99.90;;;;;;5051576;28;20434;-51
2021/09/08 01:16:59;;;;;;;26.30;22.10;;;15.20;99.90;;;;;;5051092;28;20466;-51
2021/09/08 01:19:27;;;;;;;28.97;22.47;;;15.20;99.90;;;;;;5050816;28;20448;-51
2021/09/08 01:21:53;;;;;;;29.33;21.70;;;15.20;99.90;;;;;;5051271;28;21074;-51
2021/09/08 01:24:23;;;;;;;27.10;23.10;;;15.10;99.90;;;;;;5051074;28;20438;-51
2021/09/08 01:26:50;;;;;;;24.80;22.10;;;15.60;99.90;;;;;;5050831;28;20959;-51
2021/09/08 01:29:17;;;;;;;27.50;22.10;;;15.10;99.90;;;;;;5050604;28;20430;-51
2021/09/08 01:31:43;;;;;;;28.07;22.57;;;15.30;99.90;;;;;;5050600;28;20486;-51
2021/09/08 01:34:10;;;;;;;25.50;22.60;;;15.10;99.90;;;;;;5050987;28;20427;-50
2021/09/08 01:36:38;;;;;;;24.53;21.10;;;15.10;99.90;;;;;;5052702;28;20430;-51
2021/09/08 01:39:05;;;;;;;25.00;20.73;;;15.10;99.90;;;;;;5054139;28;20458;-51
2021/09/08 01:41:33;;;;;;;25.90;21.23;;;15.10;99.90;;;;;;5036353;28;20478;-51
2021/09/08 01:44:00;;;;;;;25.57;20.47;;;15.00;99.90;;;;;;5054828;28;20416;-50
2021/09/08 01:46:26;;;;;;;25.97;22.23;;;15.60;99.90;;;;;;5054584;28;20878;-51
2021/09/08 01:48:53;;;;;;;24.93;20.77;;;15.10;99.90;;;;;;5054210;28;20450;-51
2021/09/08 01:51:19;;;;;;;26.70;21.53;;;15.30;99.90;;;;;;5054312;28;20962;-50
2021/09/08 01:53:47;;;;;;;24.10;21.33;;;15.10;99.90;;;;;;5054072;28;20556;-50
2021/09/08 01:56:15;;;;;;;21.87;19.23;;;14.90;99.90;;;;;;5054128;28;20447;-50
2021/09/08 01:58:43;;;;;;;23.57;20.87;;;15.40;99.90;;;;;;5053895;28;20452;-50
2021/09/08 02:01:10;;;;;;;25.70;20.97;;;15.50;99.90;;;;;;5054054;28;20675;-51
2021/09/08 02:03:36;;;;;;;25.50;21.97;;;15.10;99.90;;;;;;5054028;28;20454;-51
2021/09/08 02:06:17;;;;;;;22.87;20.00;;;15.00;99.90;;;;;;5054069;28;20433;-51
2021/09/08 02:08:43;;;;;;;28.50;20.73;;;15.10;99.90;;;;;;5053663;28;20521;-51
2021/09/08 02:11:10;;;;;;;26.90;20.60;;;15.00;99.90;;;;;;5053916;28;20445;-50
2021/09/08 02:13:38;;;;;;;21.90;19.23;;;15.00;99.90;;;;;;5053870;28;20489;-51
2021/09/08 02:16:06;;;;;;;21.50;19.20;;;15.00;99.90;;;;;;5053755;28;20918;-51
2021/09/08 02:18:32;;;;;;;21.10;18.30;;;15.00;99.90;;;;;;5035550;28;20506;-51
2021/09/08 02:20:59;;;;;;;28.87;20.60;;;15.00;99.90;;;;;;5053484;28;20464;-50
2021/09/08 02:23:25;;;;;;;23.87;20.33;;;14.90;99.90;;;;;;5054048;28;20429;-51
2021/09/08 02:25:52;;;;;;;21.60;19.10;;;14.90;99.90;;;;;;5053625;28;20435;-51
2021/09/08 02:28:20;;;;;;;24.63;21.10;;;15.20;99.90;;;;;;5053237;28;20437;-51
2021/09/08 02:30:48;;;;;;;23.77;20.03;;;14.90;99.90;;;;;;5053615;28;20458;-51
2021/09/08 02:33:16;;;;;;;23.53;20.00;;;14.90;99.90;;;;;;5053486;28;20516;-50
2021/09/08 02:35:43;;;;;;;21.63;19.43;;;15.10;99.90;;;;;;5053375;28;20796;-51
2021/09/08 02:38:10;;;;;;;25.50;18.87;;;14.70;99.90;;;;;;5052988;28;20887;-51
2021/09/08 02:40:36;;;;;;;21.90;19.03;;;14.80;99.90;;;;;;5053233;28;20453;-50
2021/09/08 02:43:03;;;;;;;23.83;20.37;;;14.80;99.90;;;;;;5053360;28;20438;-51
2021/09/08 02:45:30;;;;;;;27.80;19.90;;;14.80;99.90;;;;;;5053198;28;20429;-51
2021/09/08 02:47:56;;;;;;;23.80;20.20;;;14.80;99.90;;;;;;5052863;28;21025;-51
2021/09/08 02:50:24;;;;;;;22.60;19.30;;;15.00;99.90;;;;;;5053291;28;20454;-51
2021/09/08 02:52:51;;;;;;;22.40;20.00;;;14.70;99.90;;;;;;5053111;28;20489;-51
2021/09/08 02:55:18;;;;;;;22.57;18.37;;;14.70;99.90;;;;;;5053057;28;20431;-51
2021/09/08 02:57:44;;;;;;;23.90;19.00;;;14.70;99.90;;;;;;5052575;28;20815;-51
2021/09/08 03:00:12;;;;;;;23.60;19.77;;;14.70;99.90;;;;;;5052972;28;20818;-51
2021/09/08 03:02:38;;;;;;;25.43;18.57;;;14.30;99.90;;;;;;5052819;28;20545;-51
2021/09/08 03:05:06;;;;;;;21.93;18.90;;;14.50;99.90;;;;;;5052883;28;20433;-51
2021/09/08 03:07:34;;;;;;;23.50;19.17;;;14.70;99.90;;;;;;5053027;28;20935;-51
2021/09/08 03:10:00;;;;;;;27.83;18.90;;;14.70;99.90;;;;;;5052289;28;20433;-51
2021/09/08 03:12:27;;;;;;;23.20;19.77;;;14.60;99.90;;;;;;5052677;28;20449;-51
2021/09/08 03:14:53;;;;;;;25.13;19.07;;;14.80;99.90;;;;;;5052678;28;20820;-51
2021/09/08 03:17:20;;;;;;;20.90;18.50;;;14.60;99.90;;;;;;5052445;28;20440;-51
2021/09/08 03:19:47;;;;;;;26.93;19.13;;;14.60;99.90;;;;;;5052258;28;20426;-51
2021/09/08 03:22:14;;;;;;;28.00;20.17;;;14.60;99.90;;;;;;5052490;28;20796;-51
2021/09/08 03:24:41;;;;;;;21.60;19.27;;;14.60;99.90;;;;;;5052431;28;20440;-51
2021/09/08 03:27:09;;;;;;;25.93;20.67;;;14.60;99.90;;;;;;5052187;28;20434;-51
2021/09/08 03:29:35;;;;;;;21.97;18.23;;;14.50;99.90;;;;;;5051728;28;20441;-51
2021/09/08 03:32:03;;;;;;;21.57;18.13;;;14.30;99.90;;;;;;5052190;28;20469;-51
2021/09/08 03:34:30;;;;;;;21.57;18.00;;;14.80;99.90;;;;;;5052276;28;20489;-51
2021/09/08 03:36:56;;;;;;;23.73;20.77;;;14.50;99.90;;;;;;5052185;28;20441;-51
2021/09/08 03:39:23;;;;;;;23.60;19.40;;;14.40;99.90;;;;;;5051855;28;20504;-51
2021/09/08 03:41:51;;;;;;;24.00;19.90;;;14.80;99.90;;;;;;5052045;28;20557;-51
2021/09/08 03:44:17;;;;;;;23.33;19.90;;;14.10;99.90;;;;;;5052454;28;20436;-51
2021/09/08 03:46:44;;;;;;;25.77;20.10;;;14.00;99.90;;;;;;5052039;28;20494;-51
2021/09/08 03:49:11;;;;;;;24.70;20.83;;;14.50;99.90;;;;;;5051419;28;20437;-51
2021/09/08 03:51:37;;;;;;;22.27;19.30;;;14.40;99.90;;;;;;5051772;28;20458;-51
2021/09/08 03:54:04;;;;;;;24.63;20.20;;;14.40;99.90;;;;;;5051737;28;20503;-51
2021/09/08 03:56:30;;;;;;;20.40;17.27;;;14.50;99.90;;;;;;5051839;28;20448;-51
2021/09/08 03:58:58;;;;;;;22.47;18.83;;;14.20;99.90;;;;;;5051060;28;20944;-51
2021/09/08 04:01:25;;;;;;;23.50;19.17;;;14.40;99.90;;;;;;5051608;28;20849;-51
2021/09/08 04:03:51;;;;;;;21.97;18.77;;;14.80;99.90;;;;;;5051853;28;20436;-51
2021/09/08 04:06:19;;;;;;;21.50;19.00;;;14.50;99.90;;;;;;5052337;28;20437;-51
2021/09/08 04:08:46;;;;;;;22.90;19.43;;;14.40;99.90;;;;;;5051471;28;20437;-51
2021/09/08 04:11:12;;;;;;;27.20;20.70;;;14.50;99.90;;;;;;5051712;28;20428;-52
2021/09/08 04:13:39;;;;;;;25.10;19.00;;;14.80;99.90;;;;;;5051827;28;20752;-51
2021/09/08 04:16:07;;;;;;;26.10;20.97;;;14.50;99.90;;;;;;5051478;28;20446;-51
2021/09/08 04:18:34;;;;;;;30.10;21.20;;;14.60;99.90;;;;;;5051215;28;20438;-51
2021/09/08 04:21:00;;;;;;;29.13;20.40;;;14.50;99.90;;;;;;5051361;28;20994;-51
2021/09/08 04:23:27;;;;;;;26.60;20.47;;;14.50;99.90;;;;;;5051464;28;20922;-51
2021/09/08 04:25:54;;;;;;;27.00;21.60;;;14.10;99.90;;;;;;5051502;28;20530;-51
2021/09/08 04:28:20;;;;;;;26.83;21.40;;;14.50;99.90;;;;;;5051298;28;20436;-51
2021/09/08 04:30:47;;;;;;;24.97;20.90;;;14.50;99.90;;;;;;5051160;28;20456;-51
2021/09/08 04:33:15;;;;;;;25.60;20.60;;;14.50;99.90;;;;;;5051332;28;20846;-51
2021/09/08 04:35:41;;;;;;;28.20;20.97;;;14.50;99.90;;;;;;5050773;28;20792;-51
2021/09/08 04:38:08;;;;;;;26.67;21.27;;;14.10;99.90;;;;;;5050679;28;20529;-51
2021/09/08 04:40:34;;;;;;;40.50;23.57;;;15.00;99.90;;;;;;5051169;28;20801;-51
2021/09/08 04:43:02;;;;;;;29.70;21.30;;;14.30;99.90;;;;;;5051153;28;20433;-51
2021/09/08 04:45:28;;;;;;;37.53;23.87;;;14.20;99.90;;;;;;5033117;28;20508;-51
2021/09/08 04:47:55;;;;;;;24.07;20.37;;;14.70;99.90;;;;;;5050688;28;20944;-51
2021/09/08 04:50:23;;;;;;;27.27;22.30;;;14.60;99.90;;;;;;5051163;28;20454;-51
2021/09/08 04:52:50;;;;;;;28.60;22.20;;;14.40;99.90;;;;;;5051318;28;20441;-51
2021/09/08 04:55:16;;;;;;;25.40;20.17;;;14.60;99.90;;;;;;5051799;28;20933;-51
2021/09/08 04:57:43;;;;;;;30.73;22.20;;;14.60;99.90;;;;;;5050587;28;20442;-51
2021/09/08 05:00:11;;;;;;;32.10;23.17;;;14.60;99.90;;;;;;5051093;28;20450;-51
2021/09/08 05:02:38;;;;;;;27.60;21.30;;;14.50;99.90;;;;;;5051065;28;20437;-51
2021/09/08 05:05:05;;;;;;;32.63;23.40;;;14.60;99.90;;;;;;5050920;28;20965;-52
2021/09/08 05:07:33;;;;;;;29.83;23.97;;;14.60;99.90;;;;;;5050867;28;20413;-51
2021/09/08 05:10:00;;;;;;;29.67;21.70;;;14.60;99.90;;;;;;5050348;28;20528;-51
2021/09/08 05:12:27;;;;;;;30.17;21.37;;;14.70;99.90;;;;;;5053628;28;20445;-51
2021/09/08 05:14:53;;;;;;;30.17;21.10;;;14.70;99.90;;;;;;5054595;28;20988;-50
2021/09/08 05:17:20;;;;;;;49.83;22.70;;;14.70;99.90;;;;;;5054120;28;20572;-51
2021/09/08 05:19:46;;;;;;;28.43;23.17;;;15.10;99.90;;;;;;5054224;28;20438;-51
2021/09/08 05:22:13;;;;;;;29.17;23.90;;;14.60;99.90;;;;;;5053925;28;20442;-51
2021/09/08 05:24:41;;;;;;;27.30;22.27;;;14.80;99.90;;;;;;5054538;28;20435;-52
2021/09/08 05:27:07;;;;;;;26.53;20.30;;;14.50;99.90;;;;;;5055154;28;20437;-51
2021/09/08 05:29:34;;;;;;;27.60;21.50;;;14.90;99.90;;;;;;5054177;28;21004;-51
2021/09/08 05:32:01;;;;;;;28.50;20.73;;;14.90;99.90;;;;;;5054480;28;20454;-51
2021/09/08 05:34:27;;;;;;;24.50;21.70;;;14.90;99.90;;;;;;5053933;28;20480;-52
2021/09/08 05:36:54;;;;;;;30.20;24.10;;;14.90;99.90;;;;;;5054383;28;20427;-52
2021/09/08 05:39:21;;;;;;;31.13;23.70;;;15.20;99.90;;;;;;5053806;28;20443;-51
2021/09/08 05:41:49;;;;;;;23.70;20.77;;;15.30;99.90;;;;;;5053940;28;20827;-52
2021/09/08 05:44:15;;;;;;;25.93;21.07;;;15.40;99.90;;;;;;5053237;28;20436;-52
2021/09/08 05:46:42;;;;;;;26.47;20.97;;;15.30;99.90;;;;;;5052106;28;20461;-53
2021/09/08 05:49:08;;;;;;;29.67;23.80;;;15.90;99.90;;;;;;5052050;28;20435;-53
2021/09/08 05:51:35;;;;;;;27.43;22.73;;;16.00;99.90;;;;;;5053388;28;20494;-52
2021/09/08 05:54:02;;;;;;;28.53;19.73;;;16.10;99.90;;;;;;5053512;28;20485;-52
2021/09/08 05:56:28;;;;;;;28.53;20.80;;;16.00;99.90;;;;;;5053554;28;20439;-52
2021/09/08 05:58:56;;;;;;;30.43;21.20;;;16.20;99.90;;;;;;5052977;28;20430;-53
2021/09/08 06:01:23;;;;;;;30.40;19.50;;;16.20;99.90;;;;;;5053540;28;20458;-52
2021/09/08 06:03:49;;;;;;;27.67;19.10;;;16.40;99.90;;;;;;5053698;28;20427;-53
2021/09/08 06:06:16;;;;;;;23.77;18.53;;;16.90;99.90;;;;;;5053819;28;20441;-52
2021/09/08 06:08:43;;;;;;;25.83;18.70;;;16.60;99.90;;;;;;5053579;28;20474;-53
2021/09/08 06:11:09;;;;;;;20.60;17.40;;;17.20;99.90;;;;;;5053810;28;20458;-50
2021/09/08 06:13:36;;;;;;;26.07;17.43;;;16.80;99.90;;;;;;5054148;28;20857;-52
2021/09/08 06:16:05;;;;;;;26.40;19.33;;;16.90;99.90;;;;;;5053538;28;20430;-51
2021/09/08 06:18:31;;;;;;;29.50;16.93;;;17.00;99.90;;;;;;5052803;28;20440;-51
2021/09/08 06:20:58;;;;;;;21.93;17.87;;;17.10;99.90;;;;;;5053078;28;20509;-51
2021/09/08 06:23:25;;;;;;;24.13;18.33;;;17.30;99.90;;;;;;5052529;28;20488;-52
2021/09/08 06:25:51;;;;;;;20.20;17.37;;;17.30;99.90;;;;;;5053073;28;20438;-52
2021/09/08 06:28:18;;;;;;;25.07;17.63;;;17.30;99.90;;;;;;5052509;28;20438;-51
2021/09/08 06:30:45;;;;;;;20.30;17.90;;;17.40;99.90;;;;;;5035203;28;20477;-52
2021/09/08 06:33:13;;;;;;;21.13;16.70;;;17.50;99.90;;;;;;5034678;28;20454;-53
2021/09/08 06:35:40;;;;;;;21.50;16.17;;;17.80;99.90;;;;;;5052661;28;20810;-52
2021/09/08 06:38:06;;;;;;;20.50;16.90;;;17.60;99.90;;;;;;5053380;28;20580;-52
2021/09/08 06:40:33;;;;;;;23.10;17.83;;;17.70;99.90;;;;;;5076127;22;20454;-53
2021/09/08 06:43:00;;;;;;;24.40;17.80;;;17.80;99.90;;;;;;5053157;28;20435;-52
2021/09/08 06:45:26;;;;;;;22.17;16.00;;;17.70;99.90;;;;;;5052865;28;20912;-52
2021/09/08 06:47:53;;;;;;;21.53;16.30;;;17.80;99.90;;;;;;5052297;28;20964;-53
2021/09/08 06:50:21;;;;;;;20.43;15.57;;;17.90;99.90;;;;;;5052965;28;20434;-54
2021/09/08 06:52:48;;;;;;;19.50;15.57;;;17.90;99.90;;;;;;5052971;28;20527;-53
2021/09/08 06:55:15;;;;;;;19.03;15.30;;;17.80;99.90;;;;;;5052792;28;20969;-53
2021/09/08 06:57:41;;;;;;;21.70;16.23;;;18.00;99.90;;;;;;5053070;28;21008;-53
2021/09/08 07:00:09;;;;;;;20.37;14.87;;;18.10;99.90;;;;;;5052604;28;20950;-53
2021/09/08 07:02:36;;;;;;;19.10;16.90;;;18.10;99.90;;;;;;5052639;28;20857;-53
2021/09/08 07:05:03;;;;;;;22.33;15.93;;;18.20;99.90;;;;;;5052566;28;20425;-53
2021/09/08 07:07:31;;;;;;;20.63;16.00;;;18.20;99.90;;;;;;5052329;28;20442;-53
2021/09/08 07:09:58;;;;;;;23.07;13.93;;;18.30;99.90;;;;;;5052001;28;20480;-53
2021/09/08 07:12:25;;;;;;;22.13;16.60;;;18.30;99.90;;;;;;5052313;28;20449;-52
2021/09/08 07:14:51;;;;;;;20.30;15.90;;;18.40;99.90;;;;;;5051529;28;20488;-52
2021/09/08 07:17:18;;;;;;;20.20;15.50;;;18.40;99.90;;;;;;5052235;28;20434;-53
2021/09/08 07:19:44;;;;;;;23.60;16.00;;;18.50;99.90;;;;;;5052104;28;20443;-53
2021/09/08 07:22:11;;;;;;;17.90;13.83;;;18.50;99.90;;;;;;5052891;28;20527;-53
2021/09/08 07:24:41;;;;;;;18.23;15.07;;;18.50;99.90;;;;;;5052196;28;20440;-53
2021/09/08 07:27:08;;;;;;;19.10;16.07;;;18.60;99.90;;;;;;5052419;28;20440;-54
2021/09/08 07:29:35;;;;;;;21.57;15.03;;;18.60;99.90;;;;;;5051524;28;20430;-53
2021/09/08 07:32:02;;;;;;;16.73;12.73;;;18.60;99.90;;;;;;5051753;28;20460;-53
2021/09/08 07:34:29;;;;;;;17.17;12.80;;;18.70;99.90;;;;;;5051423;28;20512;-53
2021/09/08 07:36:55;;;;;;;24.97;14.13;;;18.70;99.90;;;;;;5051672;28;20429;-53
2021/09/08 07:39:24;;;;;;;16.73;12.80;;;18.80;99.90;;;;;;5051247;28;20446;-53
2021/09/08 07:41:52;;;;;;;24.87;14.37;;;18.80;99.90;;;;;;5051349;28;20472;-53
2021/09/08 07:44:19;;;;;;;18.23;12.80;;;18.90;99.90;;;;;;5051453;28;20456;-53
2021/09/08 07:46:46;;;;;;;17.27;12.47;;;18.90;99.90;;;;;;5051295;28;20433;-53
2021/09/08 07:49:12;;;;;;;15.67;13.00;;;18.90;99.90;;;;;;5051077;28;20501;-52
2021/09/08 07:51:39;;;;;;;24.27;14.60;;;19.00;99.90;;;;;;5051616;28;20457;-53
2021/09/08 07:54:06;;;;;;;14.67;12.10;;;19.10;99.90;;;;;;5051585;28;20489;-53
2021/09/08 07:56:32;;;;;;;14.60;12.17;;;19.00;99.90;;;;;;5051267;28;20445;-52
2021/09/08 07:59:01;;;;;;;16.37;12.20;;;19.10;99.90;;;;;;5051636;28;20456;-53
2021/09/08 08:01:29;;;;;;;13.50;11.50;;;19.10;99.90;;;;;;5051490;28;20460;-53
2021/09/08 08:03:56;;;;;;;11.47;9.90;;;19.20;99.90;;;;;;5051889;28;20477;-53
2021/09/08 08:06:23;;;;;;;17.50;12.60;;;19.20;99.90;;;;;;5052472;28;20783;-52
2021/09/08 08:08:49;;;;;;;31.63;13.30;;;19.20;99.90;;;;;;5051953;28;20544;-53
2021/09/08 08:11:16;;;;;;;15.90;11.60;;;19.30;99.90;;;;;;5051810;28;20476;-52
2021/09/08 08:13:47;;;;;;;16.17;12.80;;;19.30;99.90;;;;;;5051257;28;20934;-51
2021/09/08 08:16:15;;;;;;;15.90;11.77;;;19.40;99.90;;;;;;5052143;28;20442;-53
2021/09/08 08:18:42;;;;;;;15.00;12.53;;;19.50;99.90;;;;;;5051191;28;20440;-53
2021/09/08 08:21:08;;;;;;;16.80;11.90;;;19.40;99.90;;;;;;5051477;28;20458;-53
2021/09/08 08:23:35;;;;;;;13.70;12.20;;;19.30;99.90;;;;;;5051233;28;20452;-52
2021/09/08 08:26:02;;;;;;;14.33;11.57;;;19.50;99.90;;;;;;5051771;28;20528;-52
2021/09/08 08:28:30;;;;;;;14.63;11.93;;;19.60;99.90;;;;;;5051073;28;20508;-53
2021/09/08 08:30:57;;;;;;;14.97;11.47;;;19.60;99.90;;;;;;5051155;28;20571;-53
2021/09/08 08:33:25;;;;;;;16.87;11.47;;;19.60;99.90;;;;;;5051515;28;20431;-52
2021/09/08 08:35:51;;;;;;;17.63;12.03;;;19.70;99.90;;;;;;5033383;28;20486;-52
2021/09/08 08:38:18;;;;;;;13.53;11.30;;;19.80;99.90;;;;;;5050338;28;20960;-53
2021/09/08 08:40:45;;;;;;;10.40;9.40;;;19.80;99.90;;;;;;5050739;28;20470;-53
2021/09/08 08:43:12;;;;;;;11.73;10.53;;;19.80;99.90;;;;;;5051358;28;20437;-52
2021/09/08 08:45:39;;;;;;;11.93;10.50;;;19.90;99.90;;;;;;5053252;28;20457;-53
2021/09/08 08:48:06;;;;;;;15.03;11.27;;;20.00;99.90;;;;;;5054999;28;20496;-53
2021/09/08 08:50:34;;;;;;;16.60;11.10;;;19.90;99.90;;;;;;5037333;28;20504;-53
2021/09/08 08:53:01;;;;;;;14.67;11.93;;;20.10;99.90;;;;;;5054981;28;20428;-53
2021/09/08 08:55:28;;;;;;;12.23;11.03;;;20.10;99.90;;;;;;5054850;28;20485;-53
2021/09/08 08:57:55;;;;;;;13.07;11.37;;;20.10;99.90;;;;;;5054557;28;20437;-54
2021/09/08 09:00:23;;;;;;;13.03;10.00;;;20.10;99.90;;;;;;5054702;28;20430;-53
2021/09/08 09:02:51;;;;;;;14.80;10.70;;;20.20;99.90;;;;;;5055181;28;20423;-53
2021/09/08 09:05:35;;;;;;;12.53;10.07;;;20.20;99.90;;;;;;5037052;28;20446;-53
2021/09/08 09:08:03;;;;;;;12.93;11.53;;;20.20;99.90;;;;;;5054552;28;20807;-54
2021/09/08 09:10:30;;;;;;;11.43;10.33;;;20.30;99.90;;;;;;5054749;28;20441;-54
2021/09/08 09:12:57;;;;;;;14.60;11.00;;;20.30;99.90;;;;;;5054527;28;20439;-53
2021/09/08 09:15:24;;;;;;;15.33;10.90;;;20.30;99.90;;;;;;5055077;28;20484;-53
2021/09/08 09:17:52;;;;;;;13.17;10.00;;;20.40;99.90;;;;;;5054084;28;20427;-54
2021/09/08 09:20:23;;;;;;;13.50;10.90;;;20.40;99.90;;;;;;5054426;28;20430;-53
2021/09/08 09:22:54;;;;;;;12.40;10.63;;;20.40;99.90;;;;;;5055846;28;20759;-53
2021/09/08 09:25:22;;;;;;;13.33;10.23;;;20.40;99.90;;;;;;5054579;28;20431;-53
2021/09/08 09:27:51;;;;;;;12.60;11.13;;;20.50;99.90;;;;;;5053772;28;20953;-54
2021/09/08 09:30:19;;;;;;;13.67;10.03;;;20.50;99.90;;;;;;5054337;28;20435;-52
2021/09/08 09:32:48;;;;;;;18.83;10.43;;;20.60;99.90;;;;;;5054341;28;20427;-53
2021/09/08 09:35:17;;;;;;;16.37;11.80;;;20.60;99.90;;;;;;5054277;28;20561;-52
2021/09/08 09:37:46;;;;;;;13.97;9.70;;;20.70;99.90;;;;;;5053572;28;20424;-53
2021/09/08 09:40:16;;;;;;;12.10;11.03;;;20.80;99.90;;;;;;5054239;28;20443;-53
2021/09/08 09:42:44;;;;;;;11.63;10.20;;;20.80;99.90;;;;;;5053809;28;20447;-53
2021/09/08 09:45:12;;;;;;;15.67;11.00;;;20.90;99.90;;;;;;5054079;28;20447;-53
2021/09/08 09:47:42;;;;;;;11.30;10.20;;;20.90;99.90;;;;;;5053729;28;20444;-53
2021/09/08 09:50:12;;;;;;;12.80;9.83;;;20.90;99.90;;;;;;5053654;28;20431;-53
2021/09/08 09:52:39;;;;;;;11.97;9.53;;;20.90;99.90;;;;;;5053616;28;20444;-53
2021/09/08 09:55:07;;;;;;;10.53;9.47;;;21.10;99.90;;;;;;5053780;28;20481;-53
2021/09/08 09:57:35;;;;;;;14.10;10.47;;;21.00;99.90;;;;;;5052512;28;20937;-53
2021/09/08 10:00:03;;;;;;;12.20;10.53;;;21.10;99.90;;;;;;5053794;28;20432;-53
2021/09/08 10:02:39;;;;;;;12.20;10.17;;;21.10;99.90;;;;;;5053636;28;20417;-53
2021/09/08 10:05:07;;;;;;;12.57;9.93;;;21.10;99.90;;;;;;5053683;28;20470;-54
2021/09/08 10:07:35;;;;;;;14.37;10.60;;;21.10;99.90;;;;;;5053454;28;20435;-52
2021/09/08 10:10:04;;;;;;;11.70;10.50;;;21.20;99.90;;;;;;5053507;28;20436;-52
2021/09/08 10:12:36;;;;;;;11.63;9.97;;;21.20;99.90;;;;;;5053956;28;20823;-53
2021/09/08 10:15:04;;;;;;;10.93;9.80;;;21.20;99.80;;;;;;5053548;28;20976;-53
2021/09/08 10:17:34;;;;;;;12.03;10.50;;;21.20;99.60;;;;;;5052747;28;20429;-53
2021/09/08 10:20:03;;;;;;;12.07;10.30;;;21.30;99.50;;;;;;5052136;28;20933;-53
2021/09/08 10:22:30;;;;;;;11.90;10.80;;;21.30;99.50;;;;;;5052706;28;20985;-53
2021/09/08 10:24:57;;;;;;;13.20;10.60;;;21.40;99.60;;;;;;5053561;28;20438;-53
2021/09/08 10:27:27;;;;;;;11.20;9.97;;;21.40;99.80;;;;;;5052814;28;20452;-53
2021/09/08 10:29:56;;;;;;;21.10;11.40;;;21.40;99.80;;;;;;5053247;28;20447;-53
2021/09/08 10:32:23;;;;;;;12.97;9.67;;;21.40;99.80;;;;;;5053188;28;20568;-53
2021/09/08 10:34:51;;;;;;;12.40;10.53;;;21.40;99.80;;;;;;5052961;28;20483;-53
2021/09/08 10:37:18;;;;;;;11.37;10.17;;;21.50;99.70;;;;;;5053833;28;20453;-53
2021/09/08 10:39:46;;;;;;;12.40;11.10;;;21.60;99.70;;;;;;5052947;28;20444;-52
2021/09/08 10:42:13;;;;;;;12.93;11.23;;;21.50;99.50;;;;;;5052639;28;20491;-52
2021/09/08 10:44:42;;;;;;;13.60;11.30;;;21.60;99.60;;;;;;5053395;28;20446;-52
2021/09/08 10:47:10;;;;;;;12.20;9.80;;;21.60;99.40;;;;;;5052889;28;20515;-54
2021/09/08 10:49:50;;;;;;;11.23;10.13;;;21.70;99.10;;;;;;5052451;28;20525;-53
2021/09/08 10:52:46;;;;;;;11.83;10.63;;;21.70;98.80;;;;;;5052734;28;20480;-52
2021/09/08 10:55:22;;;;;;;11.73;9.70;;;21.80;98.90;;;;;;5053070;28;20508;-54
2021/09/08 10:57:58;;;;;;;11.77;10.40;;;21.80;99.00;;;;;;5052263;28;20985;-53
2021/09/08 11:00:29;;;;;;;13.30;10.50;;;21.80;99.00;;;;;;5052607;28;20499;-53
2021/09/08 11:02:57;;;;;;;11.30;10.20;;;21.80;98.80;;;;;;5052803;28;20442;-53
2021/09/08 11:05:24;;;;;;;11.80;10.60;;;21.80;98.50;;;;;;5052912;28;20433;-53
2021/09/08 11:07:52;;;;;;;12.90;11.57;;;21.80;98.70;;;;;;5051366;28;20626;-52
2021/09/08 11:10:28;;;;;;;12.83;10.87;;;21.90;98.80;;;;;;5051702;28;20434;-53
2021/09/08 11:12:57;;;;;;;13.67;12.27;;;21.90;98.90;;;;;;5052432;28;20521;-52
2021/09/08 11:15:32;;;;;;;11.67;10.50;;;21.90;99.00;;;;;;5052035;28;20485;-53
2021/09/08 11:18:00;;;;;;;12.80;11.50;;;21.90;99.00;;;;;;5051487;28;20436;-53
2021/09/08 11:20:27;;;;;;;14.13;12.43;;;21.90;99.00;;;;;;5052157;28;20658;-54
2021/09/08 11:23:02;;;;;;;13.20;11.67;;;21.90;99.00;;;;;;5034469;28;20456;-54
2021/09/08 11:25:30;;;;;;;16.10;11.67;;;22.00;98.90;;;;;;5052293;28;20911;-54
2021/09/08 11:27:57;;;;;;;12.40;10.40;;;22.00;98.90;;;;;;5051980;28;20528;-54
2021/09/08 11:30:29;;;;;;;11.83;10.63;;;22.00;98.60;;;;;;5052280;28;20469;-53
2021/09/08 11:32:57;;;;;;;11.13;10.00;;;22.10;98.60;;;;;;5052149;28;20439;-53
2021/09/08 11:35:42;;;;;;;12.40;10.33;;;22.10;98.20;;;;;;5051964;28;20485;-53
2021/09/08 11:38:13;;;;;;;11.97;9.80;;;22.10;97.80;;;;;;5052127;28;20524;-54
2021/09/08 11:40:44;;;;;;;10.13;9.13;;;22.10;97.60;;;;;;5053130;28;20487;-53
2021/09/08 11:43:14;;;;;;;10.33;9.33;;;22.20;97.30;;;;;;5051822;28;20931;-53
2021/09/08 11:45:41;;;;;;;9.97;8.97;;;22.30;97.30;;;;;;5052351;28;20448;-53
2021/09/08 11:48:07;;;;;;;13.10;10.33;;;22.30;97.00;;;;;;5052737;28;20434;-54
2021/09/08 11:50:35;;;;;;;10.43;9.33;;;22.30;97.30;;;;;;5052057;28;20471;-53
2021/09/08 11:53:03;;;;;;;12.10;10.10;;;22.40;97.30;;;;;;5052531;28;20632;-52
2021/09/08 11:55:36;;;;;;;11.90;10.07;;;22.40;97.20;;;;;;5033460;28;20487;-53
2021/09/08 11:58:19;;;;;;;10.47;9.40;;;22.50;97.20;;;;;;5051222;28;20481;-52
2021/09/08 12:00:56;;;;;;;9.77;8.60;;;22.50;97.00;;;;;;5051815;28;20470;-53
2021/09/08 12:03:22;;;;;;;10.20;9.07;;;22.30;96.80;;;;;;5051493;28;20426;-53
2021/09/08 12:05:50;;;;;;;11.20;9.13;;;22.30;96.70;;;;;;5052027;28;20753;-57
2021/09/08 12:08:20;;;;;;;13.37;8.77;;;22.50;96.70;;;;;;5051534;28;20504;-54
2021/09/08 12:10:47;;;;;;;10.73;9.73;;;22.50;96.50;;;;;;5051716;28;20507;-53
2021/09/08 12:13:27;;;;;;;11.37;10.20;;;22.50;96.30;;;;;;5051467;28;20431;-54
2021/09/08 12:15:54;;;;;;;11.23;9.33;;;22.50;96.10;;;;;;5051195;28;20478;-53
2021/09/08 12:18:21;;;;;;;10.30;9.30;;;22.50;96.10;;;;;;5050964;28;20430;-53
2021/09/08 12:20:48;;;;;;;10.90;9.83;;;22.50;95.80;;;;;;5051206;28;20459;-54
2021/09/08 12:23:27;;;;;;;9.83;8.83;;;22.60;95.80;;;;;;5050927;28;20792;-54
2021/09/08 12:26:08;;;;;;;10.50;8.67;;;22.70;95.50;;;;;;5049705;28;20556;-54
2021/09/08 12:28:35;;;;;;;9.93;9.00;;;22.70;95.70;;;;;;5034002;28;20544;-54
2021/09/08 12:31:17;;;;;;;12.20;9.20;;;22.70;95.70;;;;;;5051084;28;20504;-54